Time;durP1;ratioP1;P1;durP2;ratioP2;P2;SDS_P1;SDS_P2;PMS_P1;PMS_P2;Temp;Humidity;BMP_temperature;BMP_pressure;BME280_temperature;BME280_humidity;BME280_pressure;Samples;Min_cycle;Max_cycle;Signal;HPM_P1;HPM_P2
2021/06/06 00:00:20;;;;;;;57.77;2.70;;;16.50;19.40;;;;;;4992761;28;20543;-67
2021/06/06 00:02:47;;;;;;;58.07;2.77;;;16.40;18.70;;;;;;4993179;28;20558;-67
2021/06/06 00:05:15;;;;;;;58.20;3.13;;;16.50;19.60;;;;;;4993241;28;20888;-67
2021/06/06 00:07:41;;;;;;;58.13;3.20;;;16.50;19.10;;;;;;4992390;28;20475;-67
2021/06/06 00:10:10;;;;;;;57.87;2.80;;;16.40;19.30;;;;;;4992840;28;20505;-67
2021/06/06 00:12:37;;;;;;;57.97;2.70;;;16.40;19.00;;;;;;4992731;28;20453;-67
2021/06/06 00:15:06;;;;;;;57.60;2.67;;;16.40;18.70;;;;;;4992513;28;21084;-67
2021/06/06 00:17:32;;;;;;;57.90;2.53;;;16.40;18.70;;;;;;4992360;28;20491;-67
2021/06/06 00:19:58;;;;;;;58.07;3.07;;;16.40;18.30;;;;;;4992555;28;20869;-67
2021/06/06 00:22:25;;;;;;;57.67;2.80;;;16.40;17.70;;;;;;4992394;28;21023;-67
2021/06/06 00:24:51;;;;;;;57.67;2.50;;;16.40;17.40;;;;;;4992516;28;20491;-66
2021/06/06 00:27:19;;;;;;;57.40;2.37;;;16.40;17.10;;;;;;4991422;28;20541;-67
2021/06/06 00:29:45;;;;;;;57.87;2.63;;;16.40;17.20;;;;;;4992707;28;20867;-67
2021/06/06 00:32:12;;;;;;;58.17;2.90;;;16.40;17.30;;;;;;4992458;28;20489;-66
2021/06/06 00:34:40;;;;;;;58.07;2.47;;;16.40;16.70;;;;;;4992362;28;20484;-67
2021/06/06 00:37:06;;;;;;;57.57;2.47;;;16.10;26.70;;;;;;4992372;28;20460;-67
2021/06/06 00:39:32;;;;;;;57.80;2.63;;;16.40;16.00;;;;;;4992574;28;20544;-67
2021/06/06 00:41:59;;;;;;;57.97;2.90;;;16.40;15.70;;;;;;4992541;28;20541;-67
2021/06/06 00:44:27;;;;;;;59.47;3.13;;;16.40;15.70;;;;;;4992406;28;20452;-67
2021/06/06 00:46:54;;;;;;;57.47;2.80;;;16.40;15.40;;;;;;4992132;28;20735;-67
2021/06/06 00:49:20;;;;;;;57.90;2.60;;;16.40;15.70;;;;;;4992117;28;20554;-67
2021/06/06 00:51:49;;;;;;;57.77;2.60;;;16.40;14.90;;;;;;4992522;28;20449;-67
2021/06/06 00:54:19;;;;;;;57.67;2.70;;;16.40;11.40;;;;;;4992177;28;20538;-67
2021/06/06 00:56:48;;;;;;;57.67;2.50;;;16.40;11.20;;;;;;4992072;28;20495;-66
2021/06/06 00:59:18;;;;;;;58.60;3.43;;;16.30;11.10;;;;;;4992125;28;20488;-67
2021/06/06 01:01:45;;;;;;;57.90;2.60;;;16.30;10.10;;;;;;4992156;28;20602;-67
2021/06/06 01:04:12;;;;;;;58.10;2.80;;;16.30;10.70;;;;;;4992179;28;20882;-67
2021/06/06 01:06:41;;;;;;;57.57;2.80;;;16.30;10.90;;;;;;4992109;28;20600;-67
2021/06/06 01:09:09;;;;;;;58.20;3.10;;;16.30;10.50;;;;;;4992067;28;20559;-67
2021/06/06 01:11:39;;;;;;;58.30;3.27;;;16.30;10.40;;;;;;4992056;28;20449;-67
2021/06/06 01:14:08;;;;;;;58.10;3.87;;;16.30;10.00;;;;;;4992187;28;20946;-67
2021/06/06 01:16:39;;;;;;;57.60;2.30;;;16.30;10.00;;;;;;4991674;28;20852;-67
2021/06/06 01:19:19;;;;;;;58.07;2.53;;;16.30;10.30;;;;;;4992137;28;20520;-67
2021/06/06 01:21:57;;;;;;;58.30;3.10;;;16.30;8.90;;;;;;4992142;28;20503;-67
2021/06/06 01:24:31;;;;;;;58.00;2.90;;;16.30;9.10;;;;;;4992062;28;20496;-67
2021/06/06 01:27:03;;;;;;;58.10;3.07;;;16.30;8.30;;;;;;4991655;28;20656;-67
2021/06/06 01:29:35;;;;;;;57.70;2.70;;;16.30;8.50;;;;;;4991931;28;20547;-67
2021/06/06 01:32:07;;;;;;;57.77;3.00;;;16.30;8.30;;;;;;4992127;28;20534;-67
2021/06/06 01:34:35;;;;;;;57.67;2.50;;;16.30;7.70;;;;;;4992064;28;20539;-67
2021/06/06 01:37:06;;;;;;;57.90;2.70;;;16.30;22.00;;;;;;4991598;28;20869;-67
2021/06/06 01:39:37;;;;;;;57.47;2.50;;;16.20;6.70;;;;;;4994151;28;20515;-66
2021/06/06 01:42:09;;;;;;;58.07;2.87;;;16.20;6.80;;;;;;4995529;28;20535;-68
2021/06/06 01:44:37;;;;;;;57.73;2.67;;;16.20;6.40;;;;;;4995217;28;20527;-67
2021/06/06 01:47:09;;;;;;;57.77;2.80;;;16.30;20.40;;;;;;4995013;28;20460;-67
2021/06/06 01:49:40;;;;;;;57.80;2.70;;;16.20;4.80;;;;;;4995121;28;20454;-67
2021/06/06 01:52:10;;;;;;;57.50;2.80;;;16.20;5.00;;;;;;4995182;28;20528;-67
2021/06/06 01:54:40;;;;;;;57.33;2.50;;;16.20;5.20;;;;;;4995247;28;20452;-67
2021/06/06 01:57:10;;;;;;;58.00;2.73;;;16.00;20.20;;;;;;4995184;28;20466;-67
2021/06/06 01:59:39;;;;;;;57.57;2.60;;;16.20;5.70;;;;;;4994837;28;20544;-67
2021/06/06 02:02:06;;;;;;;57.77;2.60;;;16.20;4.80;;;;;;4994945;28;20544;-67
2021/06/06 02:04:34;;;;;;;57.77;2.50;;;16.10;5.00;;;;;;4994742;28;20457;-67
2021/06/06 02:07:08;;;;;;;57.90;2.40;;;16.10;5.10;;;;;;4994783;28;20537;-67
2021/06/06 02:09:43;;;;;;;58.10;3.00;;;16.10;5.50;;;;;;4994907;28;20543;-67
2021/06/06 02:12:10;;;;;;;58.10;2.90;;;16.10;5.60;;;;;;4994875;28;20448;-67
2021/06/06 02:14:40;;;;;;;57.70;2.53;;;16.10;5.70;;;;;;4994635;28;20471;-67
2021/06/06 02:17:10;;;;;;;57.90;2.70;;;16.10;5.50;;;;;;4994671;28;20434;-67
2021/06/06 02:19:39;;;;;;;58.30;3.57;;;16.10;5.70;;;;;;4994599;28;20547;-66
2021/06/06 02:22:10;;;;;;;57.63;2.67;;;16.10;5.80;;;;;;4994569;28;20463;-67
2021/06/06 02:24:37;;;;;;;57.63;2.50;;;16.10;7.00;;;;;;4994659;28;20458;-67
2021/06/06 02:27:11;;;;;;;57.83;2.47;;;16.10;7.40;;;;;;4994215;28;20528;-67
2021/06/06 02:29:51;;;;;;;57.90;2.50;;;16.00;7.40;;;;;;4994792;28;20536;-67
2021/06/06 02:32:23;;;;;;;57.80;2.60;;;16.00;7.20;;;;;;4994646;28;20444;-67
2021/06/06 02:34:58;;;;;;;58.00;2.57;;;16.00;8.30;;;;;;4994486;28;20539;-68
2021/06/06 02:37:29;;;;;;;57.77;2.83;;;15.90;9.50;;;;;;4994086;28;20483;-68
2021/06/06 02:39:59;;;;;;;57.43;2.50;;;15.90;10.80;;;;;;4994163;28;20512;-68
2021/06/06 02:42:30;;;;;;;57.87;2.70;;;15.90;13.30;;;;;;4994410;28;20541;-69
2021/06/06 02:45:00;;;;;;;57.57;2.37;;;15.80;15.20;;;;;;4994125;28;20497;-70
2021/06/06 02:47:30;;;;;;;58.10;2.87;;;15.80;16.30;;;;;;4994011;28;20893;-71
2021/06/06 02:49:59;;;;;;;57.90;2.43;;;15.70;19.10;;;;;;4993564;28;20541;-72
2021/06/06 02:52:39;;;;;;;57.67;2.40;;;15.60;21.20;;;;;;4994040;28;20535;-71
2021/06/06 02:55:10;;;;;;;58.20;2.70;;;15.60;23.60;;;;;;4994093;28;20484;-71
2021/06/06 02:57:39;;;;;;;58.17;2.80;;;;;;;;;;4993598;28;20560;-71
2021/06/06 03:00:11;;;;;;;57.90;2.30;;;15.50;36.70;;;;;;4993934;28;20568;-71
2021/06/06 03:02:42;;;;;;;57.83;2.50;;;15.50;29.30;;;;;;4993836;28;20514;-71
2021/06/06 03:05:12;;;;;;;58.00;2.47;;;15.40;31.40;;;;;;4994065;28;20539;-71
2021/06/06 03:07:45;;;;;;;58.40;2.90;;;15.40;32.80;;;;;;4993410;28;20981;-71
2021/06/06 03:10:14;;;;;;;57.80;2.80;;;15.40;33.90;;;;;;4993779;28;20536;-71
2021/06/06 03:12:43;;;;;;;57.73;2.57;;;15.30;36.10;;;;;;4993608;28;20546;-71
2021/06/06 03:15:12;;;;;;;57.87;2.60;;;15.30;38.00;;;;;;4993462;28;20566;-71
2021/06/06 03:17:42;;;;;;;57.73;2.60;;;15.30;40.60;;;;;;4993435;28;20512;-71
2021/06/06 03:20:13;;;;;;;57.63;2.43;;;15.30;41.00;;;;;;4993376;28;20534;-71
2021/06/06 03:22:41;;;;;;;57.57;2.50;;;15.20;44.00;;;;;;4993659;28;20542;-71
2021/06/06 03:25:12;;;;;;;57.47;2.43;;;15.20;46.30;;;;;;4993501;28;20571;-71
2021/06/06 03:27:43;;;;;;;57.87;2.60;;;15.20;48.60;;;;;;4993056;28;20560;-71
2021/06/06 03:30:22;;;;;;;57.57;2.40;;;15.20;51.40;;;;;;4993644;28;20460;-70
2021/06/06 03:32:50;;;;;;;57.97;2.80;;;15.20;51.10;;;;;;4993698;28;20867;-70
2021/06/06 03:35:16;;;;;;;57.80;2.60;;;15.10;53.50;;;;;;4993145;28;20482;-71
2021/06/06 03:37:43;;;;;;;57.80;2.40;;;15.10;57.00;;;;;;4992886;28;21043;-70
2021/06/06 03:40:11;;;;;;;57.77;2.47;;;15.10;58.90;;;;;;4993031;28;20476;-71
2021/06/06 03:42:38;;;;;;;57.77;2.50;;;15.10;59.20;;;;;;4993290;28;20546;-71
2021/06/06 03:45:08;;;;;;;57.83;2.50;;;15.10;59.80;;;;;;4993118;28;20539;-71
2021/06/06 03:47:34;;;;;;;58.07;2.57;;;15.00;60.10;;;;;;4992849;28;20593;-70
2021/06/06 03:50:01;;;;;;;58.17;2.60;;;15.00;60.70;;;;;;4992932;28;20450;-70
2021/06/06 03:52:33;;;;;;;57.70;2.40;;;14.90;61.10;;;;;;4993175;28;20999;-71
2021/06/06 03:55:00;;;;;;;57.47;2.50;;;14.90;62.00;;;;;;4992800;28;20451;-71
2021/06/06 03:57:26;;;;;;;57.97;2.50;;;14.90;63.10;;;;;;4992728;28;20463;-70
2021/06/06 03:59:53;;;;;;;57.87;2.70;;;14.90;65.70;;;;;;4992727;28;20553;-71
2021/06/06 04:02:20;;;;;;;57.90;2.47;;;14.90;67.50;;;;;;4992918;28;20538;-71
2021/06/06 04:04:47;;;;;;;57.30;2.60;;;14.90;68.00;;;;;;4992848;28;20542;-70
2021/06/06 04:07:13;;;;;;;57.97;2.80;;;14.90;68.40;;;;;;4992425;28;20902;-70
2021/06/06 04:09:39;;;;;;;58.10;2.47;;;14.80;68.20;;;;;;4992835;28;20550;-70
2021/06/06 04:12:07;;;;;;;57.83;2.47;;;14.80;68.30;;;;;;4992997;28;20536;-70
2021/06/06 04:14:33;;;;;;;57.57;2.70;;;14.80;68.80;;;;;;4992559;28;20459;-70
2021/06/06 04:17:00;;;;;;;57.83;2.43;;;14.80;69.30;;;;;;4992294;28;20537;-70
2021/06/06 04:19:27;;;;;;;57.93;2.50;;;14.80;71.00;;;;;;4992587;28;20543;-70
2021/06/06 04:21:54;;;;;;;57.77;2.50;;;14.80;72.10;;;;;;4992518;28;20539;-70
2021/06/06 04:24:20;;;;;;;57.87;2.50;;;14.80;73.60;;;;;;4992767;28;20590;-70
2021/06/06 04:26:46;;;;;;;57.87;2.50;;;14.80;74.90;;;;;;4992450;28;20538;-70
2021/06/06 04:29:13;;;;;;;57.77;2.50;;;14.80;76.00;;;;;;4992499;28;20510;-70
2021/06/06 04:31:39;;;;;;;57.73;2.60;;;14.80;77.50;;;;;;4992573;28;20535;-70
2021/06/06 04:34:05;;;;;;;57.80;2.47;;;14.90;79.90;;;;;;4992221;28;20560;-70
2021/06/06 04:36:33;;;;;;;57.57;2.80;;;14.80;81.50;;;;;;4991774;28;20585;-70
2021/06/06 04:38:59;;;;;;;57.87;2.47;;;14.80;82.20;;;;;;4992379;28;20618;-70
2021/06/06 04:41:26;;;;;;;57.97;2.60;;;14.80;83.20;;;;;;4992647;28;20482;-70
2021/06/06 04:43:52;;;;;;;57.77;3.00;;;14.80;83.60;;;;;;4992790;28;20544;-71
2021/06/06 04:46:19;;;;;;;57.57;2.40;;;14.80;83.90;;;;;;4992725;28;20452;-71
2021/06/06 04:48:46;;;;;;;57.80;2.60;;;14.90;84.70;;;;;;4992314;28;20917;-71
2021/06/06 04:51:17;;;;;;;57.60;2.70;;;14.90;85.00;;;;;;4992266;28;20451;-70
2021/06/06 04:53:45;;;;;;;60.63;3.20;;;14.80;85.00;;;;;;4992522;28;20836;-71
2021/06/06 04:56:14;;;;;;;57.77;2.63;;;14.90;85.90;;;;;;4992110;28;20519;-71
2021/06/06 04:58:41;;;;;;;57.67;2.57;;;14.80;86.70;;;;;;4992021;28;20512;-72
2021/06/06 05:01:07;;;;;;;57.60;2.40;;;14.90;88.50;;;;;;4992602;28;20460;-72
2021/06/06 05:03:34;;;;;;;57.37;2.40;;;14.90;89.60;;;;;;4992323;28;20531;-72
2021/06/06 05:06:01;;;;;;;57.57;2.40;;;14.90;90.40;;;;;;4992272;28;20448;-72
2021/06/06 05:08:28;;;;;;;57.77;2.50;;;14.90;90.80;;;;;;4992163;28;20566;-71
2021/06/06 05:10:56;;;;;;;57.40;2.33;;;14.90;91.00;;;;;;4992194;28;20498;-71
2021/06/06 05:13:23;;;;;;;57.80;2.30;;;14.90;99.90;;;;;;4992954;28;20455;-71
2021/06/06 05:15:52;;;;;;;57.63;2.60;;;14.90;99.90;;;;;;4995729;28;21011;-72
2021/06/06 05:18:19;;;;;;;57.33;2.50;;;14.90;99.90;;;;;;4995748;28;20567;-72
2021/06/06 05:20:48;;;;;;;57.67;2.40;;;14.90;99.90;;;;;;4995930;28;20539;-71
2021/06/06 05:23:15;;;;;;;57.57;2.40;;;14.90;99.90;;;;;;4995887;28;20452;-72
2021/06/06 05:25:43;;;;;;;57.57;2.40;;;14.90;99.90;;;;;;4995612;28;20479;-71
2021/06/06 05:28:14;;;;;;;57.73;2.30;;;14.90;99.90;;;;;;4995395;28;20576;-72
2021/06/06 05:30:41;;;;;;;57.63;2.50;;;14.90;99.90;;;;;;4995723;28;20544;-72
2021/06/06 05:33:09;;;;;;;57.50;2.30;;;14.90;99.90;;;;;;4995922;28;20530;-72
2021/06/06 05:35:38;;;;;;;57.67;2.60;;;14.90;99.90;;;;;;4995584;28;20489;-72
2021/06/06 05:38:07;;;;;;;57.37;2.30;;;14.90;99.90;;;;;;4995181;28;20555;-72
2021/06/06 05:40:36;;;;;;;57.70;2.30;;;15.00;99.90;;;;;;4995310;28;20497;-71
2021/06/06 05:43:03;;;;;;;57.87;2.50;;;15.00;99.90;;;;;;4995316;28;20452;-72
2021/06/06 05:45:32;;;;;;;58.00;2.50;;;15.00;99.90;;;;;;4995506;28;20867;-72
2021/06/06 05:47:58;;;;;;;58.10;2.60;;;15.00;99.90;;;;;;4995068;28;20475;-72
2021/06/06 05:50:27;;;;;;;57.77;2.40;;;15.00;99.90;;;;;;4995186;28;20538;-72
2021/06/06 05:52:54;;;;;;;57.80;2.60;;;15.00;99.90;;;;;;4995085;28;21021;-72
2021/06/06 05:55:21;;;;;;;57.67;2.50;;;15.10;99.90;;;;;;4995099;28;20479;-71
2021/06/06 05:57:49;;;;;;;57.57;2.40;;;15.10;99.90;;;;;;4994704;28;20896;-71
2021/06/06 06:00:19;;;;;;;57.83;2.60;;;15.10;99.90;;;;;;4995030;28;20550;-71
2021/06/06 06:02:47;;;;;;;57.57;2.30;;;15.10;99.90;;;;;;4995140;28;20548;-72
2021/06/06 06:05:14;;;;;;;57.67;2.40;;;15.10;99.90;;;;;;4995352;28;20543;-71
2021/06/06 06:07:41;;;;;;;57.67;2.40;;;15.10;99.90;;;;;;4994679;28;20479;-71
2021/06/06 06:10:08;;;;;;;57.67;2.40;;;15.10;99.90;;;;;;4994746;28;20827;-71
2021/06/06 06:12:36;;;;;;;57.57;2.37;;;15.10;99.90;;;;;;4994793;28;21028;-71
2021/06/06 06:15:04;;;;;;;57.37;2.60;;;15.10;99.90;;;;;;4994815;28;20543;-71
2021/06/06 06:17:31;;;;;;;57.80;2.80;;;15.10;99.90;;;;;;4994589;28;20548;-71
2021/06/06 06:19:58;;;;;;;57.73;2.53;;;15.10;99.90;;;;;;4994702;28;20452;-71
2021/06/06 06:22:25;;;;;;;57.67;2.60;;;15.00;99.90;;;;;;4994699;28;20513;-70
2021/06/06 06:24:51;;;;;;;57.53;2.80;;;15.10;99.90;;;;;;4993316;28;20547;-70
2021/06/06 06:27:18;;;;;;;57.77;2.80;;;15.00;99.90;;;;;;4994262;28;20539;-70
2021/06/06 06:29:47;;;;;;;57.60;2.60;;;15.10;99.90;;;;;;4994614;28;20544;-70
2021/06/06 06:32:13;;;;;;;57.67;2.50;;;15.00;99.90;;;;;;4994545;28;20552;-70
2021/06/06 06:34:39;;;;;;;57.70;2.93;;;15.10;99.90;;;;;;4994439;28;20507;-71
2021/06/06 06:37:07;;;;;;;58.10;2.63;;;15.10;99.90;;;;;;4994053;28;20862;-71
2021/06/06 06:39:34;;;;;;;57.37;2.73;;;15.10;99.90;;;;;;4994137;28;20510;-70
2021/06/06 06:42:00;;;;;;;57.27;2.30;;;15.20;99.90;;;;;;4994474;28;20918;-71
2021/06/06 06:44:27;;;;;;;57.80;2.70;;;15.20;99.90;;;;;;4994401;28;20454;-71
2021/06/06 06:46:53;;;;;;;58.60;3.20;;;15.20;99.90;;;;;;4994419;28;20574;-71
2021/06/06 06:49:19;;;;;;;57.13;2.60;;;15.20;99.90;;;;;;4994008;28;20543;-71
2021/06/06 06:51:46;;;;;;;57.60;2.50;;;15.20;99.90;;;;;;4994146;28;20544;-71
2021/06/06 06:54:14;;;;;;;58.20;3.30;;;15.30;99.90;;;;;;4993975;28;20539;-71
2021/06/06 06:56:40;;;;;;;57.47;2.43;;;15.30;99.90;;;;;;4993743;28;21008;-71
2021/06/06 06:59:06;;;;;;;57.47;2.53;;;15.40;99.90;;;;;;4993702;28;20558;-71
2021/06/06 07:01:32;;;;;;;57.73;3.13;;;15.40;99.90;;;;;;4994054;28;20902;-71
2021/06/06 07:03:59;;;;;;;57.60;3.03;;;15.40;99.90;;;;;;4993947;28;20455;-71
2021/06/06 07:06:25;;;;;;;57.70;2.60;;;15.40;99.90;;;;;;4993536;28;21044;-71
2021/06/06 07:08:52;;;;;;;57.50;2.30;;;15.40;99.90;;;;;;4993748;28;20559;-71
2021/06/06 07:11:21;;;;;;;57.47;2.40;;;15.40;99.90;;;;;;4993914;28;20487;-71
2021/06/06 07:13:48;;;;;;;57.77;2.50;;;15.40;99.90;;;;;;4993799;28;20453;-70
2021/06/06 07:16:15;;;;;;;57.97;3.03;;;15.40;99.90;;;;;;4993318;28;20493;-71
2021/06/06 07:18:42;;;;;;;57.90;3.00;;;15.50;99.90;;;;;;4993450;28;20471;-71
2021/06/06 07:21:12;;;;;;;57.80;2.60;;;15.50;99.90;;;;;;4993425;28;20543;-71
2021/06/06 07:23:38;;;;;;;57.50;2.60;;;15.50;99.90;;;;;;4993608;28;20993;-71
2021/06/06 07:26:08;;;;;;;57.77;2.53;;;15.50;99.90;;;;;;4993263;28;20537;-71
2021/06/06 07:28:36;;;;;;;58.00;2.70;;;15.60;99.90;;;;;;4993431;28;20559;-71
2021/06/06 07:31:04;;;;;;;57.47;2.50;;;15.60;99.90;;;;;;4993400;28;20540;-71
2021/06/06 07:33:33;;;;;;;57.37;2.50;;;15.70;99.90;;;;;;4993227;28;20595;-71
2021/06/06 07:36:00;;;;;;;57.57;2.50;;;15.70;99.90;;;;;;4993075;28;20489;-71
2021/06/06 07:38:28;;;;;;;57.90;2.80;;;15.70;99.90;;;;;;4993143;28;20908;-71
2021/06/06 07:40:55;;;;;;;57.47;2.60;;;15.70;99.90;;;;;;4993302;28;20841;-71
2021/06/06 07:43:21;;;;;;;57.77;2.67;;;15.70;99.90;;;;;;4993198;28;20536;-71
2021/06/06 07:45:49;;;;;;;57.27;2.40;;;15.70;99.90;;;;;;4993105;28;20450;-71
2021/06/06 07:48:16;;;;;;;57.83;2.67;;;15.60;99.90;;;;;;4992754;28;20572;-70
2021/06/06 07:50:44;;;;;;;57.60;2.60;;;15.60;99.90;;;;;;4993212;28;20449;-70
2021/06/06 07:53:13;;;;;;;57.37;2.40;;;15.50;99.90;;;;;;4993313;28;21007;-71
2021/06/06 07:55:40;;;;;;;57.53;2.30;;;15.50;99.90;;;;;;4992904;28;20576;-70
2021/06/06 07:58:06;;;;;;;57.57;2.60;;;15.50;99.90;;;;;;4992645;28;20561;-70
2021/06/06 08:00:35;;;;;;;57.67;2.50;;;15.50;99.90;;;;;;4992623;28;20524;-70
2021/06/06 08:03:04;;;;;;;57.50;2.50;;;15.50;99.90;;;;;;4993056;28;20462;-70
2021/06/06 08:05:31;;;;;;;57.57;2.90;;;15.50;99.90;;;;;;4992701;28;20452;-71
2021/06/06 08:07:57;;;;;;;58.17;2.90;;;15.60;99.90;;;;;;4992726;28;20887;-70
2021/06/06 08:10:26;;;;;;;57.43;2.43;;;15.50;99.90;;;;;;4992759;28;20547;-70
2021/06/06 08:12:53;;;;;;;57.67;2.40;;;15.60;99.90;;;;;;4992719;28;20542;-70
2021/06/06 08:15:21;;;;;;;57.70;2.80;;;15.60;99.90;;;;;;4992801;28;20452;-70
2021/06/06 08:17:47;;;;;;;57.47;2.60;;;15.60;99.90;;;;;;4992578;28;20508;-70
2021/06/06 08:20:22;;;;;;;57.47;2.50;;;15.60;99.90;;;;;;4992535;28;20964;-70
2021/06/06 08:22:48;;;;;;;58.17;2.90;;;15.70;99.90;;;;;;4992786;28;20480;-70
2021/06/06 08:25:16;;;;;;;57.60;2.60;;;15.70;99.90;;;;;;4992812;28;20480;-71
2021/06/06 08:27:43;;;;;;;57.37;2.50;;;15.70;99.90;;;;;;4992182;28;20989;-70
2021/06/06 08:30:14;;;;;;;58.67;3.23;;;15.70;99.90;;;;;;4992433;28;20988;-70
2021/06/06 08:32:40;;;;;;;57.70;2.80;;;15.80;99.90;;;;;;4992682;28;20541;-70
2021/06/06 08:35:08;;;;;;;57.53;2.57;;;15.80;99.90;;;;;;4992501;28;20895;-70
2021/06/06 08:37:36;;;;;;;57.57;2.40;;;15.80;99.90;;;;;;4992043;28;20572;-70
2021/06/06 08:40:04;;;;;;;57.27;2.53;;;15.80;99.90;;;;;;4992351;28;20486;-71
2021/06/06 08:42:32;;;;;;;57.50;2.67;;;15.80;99.90;;;;;;4992869;28;20536;-70
2021/06/06 08:45:07;;;;;;;57.43;2.40;;;15.80;99.90;;;;;;4992609;28;20453;-70
2021/06/06 08:47:35;;;;;;;57.67;2.30;;;15.90;99.90;;;;;;4992197;28;20943;-70
2021/06/06 08:50:05;;;;;;;57.40;2.60;;;15.80;99.90;;;;;;4995801;28;20449;-70
2021/06/06 08:52:40;;;;;;;57.43;2.40;;;15.90;99.90;;;;;;4996489;28;20460;-70
2021/06/06 08:55:17;;;;;;;57.57;2.57;;;15.90;99.90;;;;;;4996509;28;20467;-70
2021/06/06 08:57:49;;;;;;;57.53;2.70;;;15.90;99.90;;;;;;4996023;28;20575;-70
2021/06/06 09:00:20;;;;;;;58.70;3.87;;;15.90;99.90;;;;;;4996067;28;21012;-70
2021/06/06 09:02:48;;;;;;;57.57;2.40;;;15.90;99.90;;;;;;4996465;28;20458;-70
2021/06/06 09:05:25;;;;;;;59.20;3.33;;;15.90;99.90;;;;;;4996498;28;20460;-70
2021/06/06 09:07:54;;;;;;;57.33;2.60;;;15.90;99.90;;;;;;4995980;28;20887;-70
2021/06/06 09:10:26;;;;;;;57.07;2.53;;;15.90;99.90;;;;;;4996030;28;20481;-70
2021/06/06 09:12:54;;;;;;;57.87;3.47;;;15.90;99.90;;;;;;4996045;28;20502;-70
2021/06/06 09:15:24;;;;;;;57.60;2.60;;;16.00;99.90;;;;;;4995945;28;21086;-70
2021/06/06 09:17:53;;;;;;;58.20;3.17;;;16.10;99.90;;;;;;4995569;28;20568;-69
2021/06/06 09:20:28;;;;;;;57.07;2.60;;;16.10;99.90;;;;;;4996038;28;20979;-70
2021/06/06 09:23:06;;;;;;;57.70;2.70;;;16.20;99.90;;;;;;4995923;28;20869;-70
2021/06/06 09:25:36;;;;;;;58.00;2.90;;;16.30;99.90;;;;;;4995801;28;20540;-69
2021/06/06 09:28:06;;;;;;;57.80;2.70;;;16.30;99.90;;;;;;4995381;28;20861;-69
2021/06/06 09:30:35;;;;;;;57.20;2.70;;;16.40;99.90;;;;;;4995770;28;20895;-69
2021/06/06 09:33:08;;;;;;;57.50;2.80;;;16.40;99.90;;;;;;4995671;28;20555;-69
2021/06/06 09:35:37;;;;;;;57.87;3.07;;;16.50;97.70;;;;;;4995583;28;20462;-69
2021/06/06 09:38:12;;;;;;;58.17;3.13;;;16.60;95.80;;;;;;4995169;28;21049;-69
2021/06/06 09:40:41;;;;;;;57.67;3.20;;;16.60;95.70;;;;;;4995447;28;20516;-69
2021/06/06 09:43:09;;;;;;;57.77;3.17;;;16.70;95.50;;;;;;4995393;28;20533;-69
2021/06/06 09:45:38;;;;;;;57.80;3.07;;;16.70;98.10;;;;;;4995464;28;20842;-69
2021/06/06 09:48:10;;;;;;;58.10;3.10;;;16.80;99.90;;;;;;4995219;28;20565;-69
2021/06/06 09:50:38;;;;;;;57.60;2.57;;;16.90;98.70;;;;;;4995100;28;20455;-69
2021/06/06 09:53:16;;;;;;;57.77;2.73;;;16.90;96.90;;;;;;4995117;28;20890;-69
2021/06/06 09:55:43;;;;;;;67.47;3.40;;;16.90;95.10;;;;;;4995073;28;21021;-69
2021/06/06 09:58:13;;;;;;;57.60;2.97;;;16.90;95.70;;;;;;4994999;28;20553;-69
2021/06/06 10:00:42;;;;;;;57.63;2.67;;;16.80;97.90;;;;;;4994779;28;20517;-69
2021/06/06 10:03:21;;;;;;;58.00;3.00;;;16.80;96.70;;;;;;4995184;28;20813;-69
2021/06/06 10:05:48;;;;;;;57.80;2.90;;;16.70;94.80;;;;;;4995074;28;21020;-69
2021/06/06 10:08:22;;;;;;;59.90;3.30;;;16.70;88.90;;;;;;4995019;28;20500;-69
2021/06/06 10:10:51;;;;;;;57.80;2.57;;;16.60;87.30;;;;;;4994861;28;20499;-69
2021/06/06 10:13:23;;;;;;;58.30;3.77;;;16.60;86.00;;;;;;4994792;28;20463;-69
2021/06/06 10:15:52;;;;;;;57.83;3.33;;;16.60;84.20;;;;;;4994665;28;20485;-69
2021/06/06 10:18:24;;;;;;;57.27;2.50;;;16.60;87.20;;;;;;4994764;28;20516;-69
2021/06/06 10:20:55;;;;;;;58.10;4.53;;;16.60;94.10;;;;;;4994939;28;20460;-69
2021/06/06 10:23:30;;;;;;;57.67;2.70;;;16.60;94.10;;;;;;4994810;28;20453;-69
2021/06/06 10:25:59;;;;;;;57.47;2.60;;;16.70;94.00;;;;;;4995003;28;20450;-69
2021/06/06 10:28:32;;;;;;;58.77;3.10;;;16.70;95.40;;;;;;4994263;28;20486;-69
2021/06/06 10:31:03;;;;;;;58.00;3.23;;;16.80;94.80;;;;;;4994783;28;20546;-69
2021/06/06 10:33:34;;;;;;;58.20;3.47;;;16.80;94.70;;;;;;4994443;28;20457;-69
2021/06/06 10:36:02;;;;;;;57.60;2.70;;;16.90;92.10;;;;;;4994367;28;20490;-69
2021/06/06 10:38:39;;;;;;;57.80;2.70;;;16.90;93.40;;;;;;4994262;28;20521;-69
2021/06/06 10:41:13;;;;;;;57.90;2.70;;;16.90;91.70;;;;;;4994258;28;20958;-69
2021/06/06 10:43:47;;;;;;;57.67;2.60;;;16.90;91.10;;;;;;4994240;28;21029;-69
2021/06/06 10:46:21;;;;;;;57.57;2.57;;;16.90;92.30;;;;;;4994346;28;20457;-69
2021/06/06 10:48:55;;;;;;;57.63;2.93;;;16.90;91.00;;;;;;4994057;28;20510;-69
2021/06/06 10:51:34;;;;;;;57.60;2.70;;;16.80;92.00;;;;;;4994592;28;20510;-69
2021/06/06 10:54:07;;;;;;;58.50;3.10;;;16.80;90.30;;;;;;4994284;28;20457;-69
2021/06/06 10:56:42;;;;;;;57.37;2.80;;;16.80;88.40;;;;;;4993994;28;20486;-69
2021/06/06 10:59:10;;;;;;;58.67;3.00;;;16.70;90.50;;;;;;4993937;28;20542;-69
2021/06/06 11:01:50;;;;;;;57.93;3.17;;;16.70;89.10;;;;;;4994159;28;20454;-69
2021/06/06 11:04:20;;;;;;;58.30;3.57;;;16.70;93.30;;;;;;4994030;28;20449;-69
2021/06/06 11:07:00;;;;;;;57.70;3.20;;;16.70;88.20;;;;;;4993911;28;20486;-69
2021/06/06 11:09:32;;;;;;;61.77;3.20;;;16.80;88.60;;;;;;4993991;28;20471;-69
2021/06/06 11:12:01;;;;;;;58.30;3.37;;;16.80;89.70;;;;;;4993274;28;20456;-69
2021/06/06 11:14:35;;;;;;;57.87;3.53;;;16.90;88.90;;;;;;4993525;28;20544;-68
2021/06/06 11:17:31;;;;;;;57.60;2.43;;;16.90;84.00;;;;;;4993459;28;20494;-69
2021/06/06 11:20:10;;;;;;;57.47;2.80;;;16.90;80.70;;;;;;4992940;28;20471;-69
2021/06/06 11:22:39;;;;;;;57.70;2.60;;;17.00;83.90;;;;;;4993961;28;20444;-69
2021/06/06 11:25:24;;;;;;;57.43;2.40;;;17.00;84.50;;;;;;4993676;28;20490;-69
2021/06/06 11:27:54;;;;;;;57.47;2.47;;;17.00;83.90;;;;;;4993314;28;20469;-69
2021/06/06 11:30:41;;;;;;;59.93;4.43;;;17.00;83.80;;;;;;4993363;28;20480;-69
2021/06/06 11:33:10;;;;;;;58.10;3.57;;;17.00;81.60;;;;;;4993674;28;20528;-69
2021/06/06 11:35:49;;;;;;;57.67;3.00;;;17.00;85.90;;;;;;4993483;28;20511;-69
2021/06/06 11:38:36;;;;;;;58.27;4.03;;;17.10;86.90;;;;;;4992971;28;20484;-69
2021/06/06 11:41:15;;;;;;;58.00;3.33;;;17.20;83.30;;;;;;4993042;28;20457;-69
2021/06/06 11:43:45;;;;;;;58.00;3.13;;;17.20;80.90;;;;;;4993036;28;20883;-69
2021/06/06 11:46:20;;;;;;;58.27;3.77;;;17.20;79.70;;;;;;4992926;28;20449;-69
2021/06/06 11:48:57;;;;;;;58.57;3.27;;;17.30;79.40;;;;;;4993113;28;20564;-69
2021/06/06 11:51:29;;;;;;;58.10;4.07;;;17.40;79.10;;;;;;4993220;28;20458;-69
2021/06/06 11:53:58;;;;;;;59.03;3.00;;;17.50;79.00;;;;;;4992958;28;20454;-69
2021/06/06 11:56:31;;;;;;;58.10;3.07;;;17.50;79.80;;;;;;4992966;28;20528;-69
2021/06/06 11:59:06;;;;;;;58.10;3.00;;;17.50;76.00;;;;;;4992834;28;20496;-69
2021/06/06 12:01:35;;;;;;;60.30;5.43;;;17.50;77.90;;;;;;4992824;28;20488;-69
2021/06/06 12:04:08;;;;;;;58.80;3.37;;;17.50;74.70;;;;;;4992873;28;20546;-69
2021/06/06 12:06:39;;;;;;;58.40;3.53;;;17.50;72.30;;;;;;4992563;28;20537;-69
2021/06/06 12:09:16;;;;;;;57.53;3.00;;;17.40;66.40;;;;;;4992852;28;20508;-69
2021/06/06 12:11:45;;;;;;;59.60;3.87;;;17.30;67.00;;;;;;4992889;28;20460;-69
2021/06/06 12:14:15;;;;;;;57.73;3.20;;;17.30;70.60;;;;;;4992779;28;20485;-68
2021/06/06 12:16:51;;;;;;;57.70;2.97;;;17.30;64.10;;;;;;4992364;28;20584;-68
2021/06/06 12:19:20;;;;;;;58.10;3.27;;;17.40;66.80;;;;;;4992520;28;20998;-69
2021/06/06 12:21:48;;;;;;;58.07;3.00;;;17.50;69.70;;;;;;4992572;28;21006;-68
2021/06/06 12:24:19;;;;;;;57.93;3.10;;;17.50;67.90;;;;;;4992544;28;20972;-69
2021/06/06 12:26:49;;;;;;;57.90;3.23;;;17.50;68.90;;;;;;4992500;28;20947;-68
2021/06/06 12:29:26;;;;;;;57.37;2.60;;;17.50;67.70;;;;;;4992268;28;20516;-68
2021/06/06 12:31:52;;;;;;;58.30;3.57;;;17.40;67.10;;;;;;4992492;28;21021;-68
2021/06/06 12:34:23;;;;;;;60.00;3.40;;;17.40;66.50;;;;;;4992640;28;20455;-68
2021/06/06 12:36:54;;;;;;;58.50;3.67;;;17.40;64.60;;;;;;4992363;28;21190;-68
2021/06/06 12:39:22;;;;;;;59.27;4.00;;;17.30;61.70;;;;;;4992652;28;20477;-68
2021/06/06 12:41:52;;;;;;;58.00;2.87;;;17.30;60.50;;;;;;4992351;28;20536;-68
2021/06/06 12:44:22;;;;;;;57.87;3.17;;;17.30;62.00;;;;;;4992578;28;20878;-68
2021/06/06 12:46:55;;;;;;;57.77;3.13;;;17.30;63.80;;;;;;4992347;28;20453;-69
2021/06/06 12:49:36;;;;;;;57.90;3.03;;;17.20;64.30;;;;;;4992147;28;20554;-69